Time;durP1;ratioP1;P1;durP2;ratioP2;P2;SDS_P1;SDS_P2;PMS_P1;PMS_P2;Temp;Humidity;BMP_temperature;BMP_pressure;BME280_temperature;BME280_humidity;BME280_pressure;Samples;Min_cycle;Max_cycle;Signal;HPM_P1;HPM_P2
2023/07/11 00:01:45;;;;;;;0.45;0.10;;;;;;;;;;5032273;28;20162;-81
2023/07/11 00:04:11;;;;;;;1.00;0.17;;;;;;;;;;5022934;28;20178;-84
2023/07/11 00:06:38;;;;;;;0.82;0.20;;;;;;;;;;5047115;28;20544;-83
2023/07/11 00:09:04;;;;;;;1.05;0.30;;;17.80;99.90;;;;;;5032069;28;20403;-82
2023/07/11 00:11:30;;;;;;;0.43;0.20;;;;;;;;;;5031010;28;20268;-81
2023/07/11 00:13:59;;;;;;;0.55;0.20;;;17.70;99.90;;;;;;5031788;28;20288;-84
2023/07/11 00:16:25;;;;;;;0.30;0.10;;;17.70;99.90;;;;;;5030842;28;20236;-78
2023/07/11 00:18:50;;;;;;;1.23;0.20;;;17.80;99.90;;;;;;5031987;28;20169;-76
2023/07/11 00:21:16;;;;;;;0.20;0.20;;;17.80;99.90;;;;;;5063915;28;20166;-77
2023/07/11 00:23:42;;;;;;;1.05;0.10;;;17.90;99.90;;;;;;5032034;28;20170;-76
2023/07/11 00:26:07;;;;;;;0.32;0.20;;;17.90;99.90;;;;;;5031732;28;20210;-78
2023/07/11 00:28:33;;;;;;;1.58;0.30;;;17.80;99.90;;;;;;5031584;28;20172;-78
2023/07/11 00:31:00;;;;;;;2.15;0.35;;;17.90;99.90;;;;;;5031558;28;20205;-77
2023/07/11 00:33:26;;;;;;;0.85;0.25;;;17.90;99.90;;;;;;5031515;28;20245;-74
2023/07/11 00:35:53;;;;;;;0.38;0.25;;;17.90;99.90;;;;;;5031578;28;20585;-78
2023/07/11 00:38:19;;;;;;;1.02;0.28;;;;;;;;;;5031353;28;20170;-78
2023/07/11 00:40:47;;;;;;;0.82;0.20;;;17.90;99.90;;;;;;5030374;28;20170;-77
2023/07/11 00:43:15;;;;;;;1.17;0.32;;;17.90;99.90;;;;;;5031312;28;20268;-78
2023/07/11 00:46:11;;;;;;;0.77;0.30;;;17.90;99.90;;;;;;5031315;28;20252;-78
2023/07/11 00:48:39;;;;;;;0.30;0.10;;;18.80;99.90;;;;;;5031417;28;20181;-76
2023/07/11 00:51:11;;;;;;;3.17;0.30;;;17.80;99.90;;;;;;5031217;28;20197;-78
2023/07/11 00:53:39;;;;;;;0.85;0.30;;;17.70;99.90;;;;;;5031144;28;20572;-77
2023/07/11 00:56:08;;;;;;;0.75;0.32;;;17.70;99.90;;;;;;5031279;28;20622;-76
2023/07/11 00:58:37;;;;;;;1.10;0.30;;;17.60;99.90;;;;;;5031248;28;20174;-76
2023/07/11 01:01:02;;;;;;;1.23;0.35;;;17.90;99.90;;;;;;5031123;28;20648;-76
2023/07/11 01:03:28;;;;;;;2.15;0.40;;;17.50;99.90;;;;;;5031121;28;20174;-75
2023/07/11 01:05:57;;;;;;;3.42;0.50;;;17.50;99.90;;;;;;5030990;28;20174;-75
2023/07/11 01:08:23;;;;;;;1.13;0.47;;;17.40;99.90;;;;;;5031000;28;20166;-75
2023/07/11 01:10:49;;;;;;;1.13;0.50;;;17.40;99.90;;;;;;5031060;28;20177;-76
2023/07/11 01:13:15;;;;;;;3.75;0.35;;;17.40;99.90;;;;;;5030872;28;20185;-75
2023/07/11 01:15:41;;;;;;;2.80;0.70;;;17.30;99.90;;;;;;5030800;28;20221;-75
2023/07/11 01:18:06;;;;;;;3.00;0.68;;;17.30;99.90;;;;;;5030844;28;20170;-76
2023/07/11 01:20:32;;;;;;;3.10;0.63;;;17.20;99.90;;;;;;5030837;28;20185;-76
2023/07/11 01:22:58;;;;;;;4.10;0.68;;;17.10;99.90;;;;;;5030992;28;20165;-75
2023/07/11 01:25:23;;;;;;;6.00;1.00;;;17.10;99.90;;;;;;5030963;28;20264;-77
2023/07/11 01:27:50;;;;;;;4.30;0.80;;;17.10;99.90;;;;;;5031139;28;20197;-81
2023/07/11 01:30:20;;;;;;;2.67;0.50;;;17.10;99.90;;;;;;5031196;28;20653;-80
2023/07/11 01:32:45;;;;;;;3.45;0.77;;;17.10;99.90;;;;;;5030875;28;20193;-81
2023/07/11 01:35:11;;;;;;;3.70;0.75;;;17.00;99.90;;;;;;5030861;28;20217;-81
2023/07/11 01:37:37;;;;;;;4.82;0.75;;;16.90;99.90;;;;;;5030900;28;20253;-79
2023/07/11 01:40:05;;;;;;;1.42;0.70;;;16.80;99.90;;;;;;5031140;28;20174;-79
2023/07/11 01:42:31;;;;;;;4.25;1.02;;;16.70;99.90;;;;;;5031005;28;20252;-82
2023/07/11 01:44:56;;;;;;;2.60;0.70;;;16.70;99.90;;;;;;5030986;28;20205;-81
2023/07/11 01:47:22;;;;;;;7.30;0.77;;;16.70;99.90;;;;;;5030893;28;20174;-82
2023/07/11 01:49:48;;;;;;;4.35;0.93;;;16.60;99.90;;;;;;5031078;28;20506;-81
2023/07/11 01:52:16;;;;;;;3.72;1.00;;;16.60;99.90;;;;;;5034630;28;20513;-82
2023/07/11 01:54:41;;;;;;;2.45;0.70;;;16.50;99.90;;;;;;5034834;28;20214;-82
2023/07/11 01:57:07;;;;;;;2.95;0.90;;;16.50;99.90;;;;;;5034607;28;20303;-74
2023/07/11 01:59:34;;;;;;;7.30;1.52;;;16.50;99.90;;;;;;5034521;28;20182;-76
2023/07/11 02:02:00;;;;;;;3.42;0.90;;;16.50;99.90;;;;;;5034386;28;20189;-75
2023/07/11 02:04:25;;;;;;;5.28;1.25;;;16.50;99.90;;;;;;5034363;28;20174;-75
2023/07/11 02:06:52;;;;;;;7.95;1.00;;;16.50;99.90;;;;;;5034358;28;20691;-76
2023/07/11 02:09:19;;;;;;;6.13;1.10;;;16.50;99.90;;;;;;5034338;28;20162;-76
2023/07/11 02:11:46;;;;;;;11.15;2.13;;;16.50;99.90;;;;;;5034210;28;20249;-74
2023/07/11 02:14:14;;;;;;;5.78;1.42;;;16.50;99.90;;;;;;5034105;28;20723;-72
2023/07/11 02:16:39;;;;;;;7.93;1.65;;;16.80;99.90;;;;;;5034200;28;20186;-73
2023/07/11 02:19:05;;;;;;;10.77;2.30;;;16.40;99.90;;;;;;5034174;28;20499;-72
2023/07/11 02:21:30;;;;;;;11.10;2.28;;;16.40;99.90;;;;;;5034179;28;20178;-75
2023/07/11 02:23:56;;;;;;;8.63;2.00;;;16.40;99.90;;;;;;5034177;28;20162;-74
2023/07/11 02:26:25;;;;;;;13.32;2.00;;;16.40;99.90;;;;;;5034040;28;20648;-74
2023/07/11 02:28:51;;;;;;;13.68;1.73;;;16.40;99.90;;;;;;5034076;28;20173;-75
2023/07/11 02:31:16;;;;;;;11.07;2.13;;;16.40;99.90;;;;;;5034393;28;20807;-72
2023/07/11 02:33:42;;;;;;;7.50;1.77;;;16.30;99.90;;;;;;5033689;28;20209;-73
2023/07/11 02:36:07;;;;;;;9.05;1.95;;;18.60;99.90;;;;;;5033680;28;20177;-73
2023/07/11 02:38:33;;;;;;;10.68;1.90;;;16.40;99.90;;;;;;5033838;28;20170;-74
2023/07/11 02:40:59;;;;;;;11.10;1.48;;;16.30;99.90;;;;;;5033555;28;20178;-74
2023/07/11 02:43:24;;;;;;;11.80;1.73;;;16.30;99.90;;;;;;5033649;28;20224;-75
2023/07/11 02:45:51;;;;;;;7.10;1.85;;;;;;;;;;5033512;28;20174;-75
2023/07/11 02:48:16;;;;;;;7.47;1.77;;;16.40;99.90;;;;;;5033718;28;20182;-75
2023/07/11 02:50:42;;;;;;;3.80;1.42;;;;;;;;;;5033646;28;20176;-73
2023/07/11 02:53:08;;;;;;;6.43;1.60;;;16.50;99.90;;;;;;5033877;28;20890;-74
2023/07/11 02:55:39;;;;;;;10.35;1.50;;;16.40;99.90;;;;;;5033569;28;20177;-74
2023/07/11 02:58:04;;;;;;;11.35;1.50;;;16.40;99.90;;;;;;5033494;28;20197;-74
2023/07/11 03:00:30;;;;;;;9.65;2.03;;;16.30;99.90;;;;;;5033490;28;20641;-74
2023/07/11 03:02:56;;;;;;;9.32;1.30;;;16.30;99.90;;;;;;5032361;28;20166;-74
2023/07/11 03:05:22;;;;;;;13.77;1.52;;;16.30;99.90;;;;;;5033301;28;20184;-75
2023/07/11 03:07:48;;;;;;;4.57;1.25;;;16.30;99.90;;;;;;5033680;28;20177;-75
2023/07/11 03:10:14;;;;;;;6.90;1.60;;;16.30;99.90;;;;;;5032315;28;20170;-75
2023/07/11 03:12:39;;;;;;;5.10;1.17;;;16.20;99.90;;;;;;5033154;28;20235;-75
2023/07/11 03:15:06;;;;;;;7.30;1.50;;;16.20;99.90;;;;;;5032923;28;20229;-74
2023/07/11 03:17:31;;;;;;;7.90;1.35;;;16.30;99.90;;;;;;5033058;28;20182;-76
2023/07/11 03:19:57;;;;;;;7.53;1.90;;;16.20;99.90;;;;;;5033067;28;20512;-76
2023/07/11 03:22:23;;;;;;;7.68;1.52;;;16.10;99.90;;;;;;5033028;28;20177;-73
2023/07/11 03:24:48;;;;;;;7.55;1.85;;;16.10;99.90;;;;;;5033147;28;20182;-77
2023/07/11 03:27:14;;;;;;;9.75;1.90;;;16.00;99.90;;;;;;5033142;28;20166;-75
2023/07/11 03:29:40;;;;;;;8.05;1.30;;;16.00;99.90;;;;;;5031175;28;20328;-75
2023/07/11 03:32:06;;;;;;;7.40;1.80;;;16.00;99.90;;;;;;5032845;28;20174;-76
2023/07/11 03:34:32;;;;;;;15.30;1.80;;;15.90;99.90;;;;;;5032359;28;20221;-75
2023/07/11 03:36:58;;;;;;;9.65;1.65;;;15.90;99.90;;;;;;5031612;28;20178;-76
2023/07/11 03:39:24;;;;;;;9.95;2.08;;;15.80;99.90;;;;;;5033135;28;20166;-76
2023/07/11 03:41:50;;;;;;;11.40;1.90;;;15.90;99.90;;;;;;5031458;28;20181;-76
2023/07/11 03:44:15;;;;;;;7.78;1.50;;;15.80;99.90;;;;;;5032683;28;20174;-74
2023/07/11 03:46:41;;;;;;;10.73;2.20;;;15.80;99.90;;;;;;5032692;28;20181;-75
2023/07/11 03:49:06;;;;;;;7.00;2.03;;;15.80;99.90;;;;;;5032499;28;20515;-74
2023/07/11 03:51:32;;;;;;;14.48;2.05;;;15.70;99.90;;;;;;5032702;28;20165;-75
2023/07/11 03:53:58;;;;;;;9.93;1.90;;;15.70;99.90;;;;;;5033481;28;20228;-79
2023/07/11 03:56:23;;;;;;;13.70;2.17;;;15.70;99.90;;;;;;5032781;28;20169;-80
2023/07/11 03:58:49;;;;;;;10.82;2.47;;;15.70;99.90;;;;;;5035391;28;20283;-78
2023/07/11 04:01:16;;;;;;;12.38;2.53;;;15.70;99.90;;;;;;5034697;28;20204;-79
2023/07/11 04:03:43;;;;;;;6.43;2.05;;;15.70;99.90;;;;;;5033791;28;20228;-78
2023/07/11 04:06:09;;;;;;;14.73;2.30;;;15.40;99.90;;;;;;5034586;28;20224;-80
2023/07/11 04:08:34;;;;;;;17.48;2.05;;;15.60;99.90;;;;;;5034963;28;20176;-81
2023/07/11 04:11:00;;;;;;;9.27;1.88;;;15.50;99.90;;;;;;5041517;28;20607;-82
2023/07/11 04:13:26;;;;;;;9.68;1.85;;;15.60;99.90;;;;;;5042478;28;20328;-83
2023/07/11 04:15:52;;;;;;;7.05;1.85;;;15.50;99.90;;;;;;5040862;28;20573;-83
2023/07/11 04:18:18;;;;;;;8.95;2.10;;;15.50;99.90;;;;;;5044049;28;20181;-83
2023/07/11 04:20:45;;;;;;;9.35;2.30;;;15.50;99.90;;;;;;5044920;28;20166;-82
2023/07/11 04:23:11;;;;;;;14.45;2.40;;;15.50;99.90;;;;;;5048194;28;20172;-75
2023/07/11 04:25:37;;;;;;;8.90;2.58;;;15.50;99.90;;;;;;5031930;28;20192;-73
2023/07/11 04:28:05;;;;;;;11.15;2.20;;;15.50;99.90;;;;;;5032004;28;20652;-74
2023/07/11 04:30:31;;;;;;;9.77;1.98;;;15.50;99.90;;;;;;5032036;28;20166;-76
2023/07/11 04:32:56;;;;;;;16.67;2.88;;;15.50;99.90;;;;;;5032055;28;20640;-76
2023/07/11 04:35:22;;;;;;;9.35;2.47;;;15.40;99.90;;;;;;5032064;28;20237;-76
2023/07/11 04:37:47;;;;;;;17.67;2.90;;;15.40;99.90;;;;;;5031665;28;20178;-74
2023/07/11 04:40:14;;;;;;;12.32;2.42;;;15.40;99.90;;;;;;5018261;28;20708;-74
2023/07/11 04:42:40;;;;;;;9.43;2.40;;;15.50;99.90;;;;;;5031501;28;20178;-74
2023/07/11 04:45:08;;;;;;;15.73;2.80;;;15.50;99.90;;;;;;5030864;28;20173;-74
2023/07/11 04:47:36;;;;;;;14.15;2.58;;;15.40;99.90;;;;;;5031440;28;20182;-74
2023/07/11 04:50:03;;;;;;;9.40;2.25;;;15.60;99.90;;;;;;5031622;28;20170;-74
2023/07/11 04:52:29;;;;;;;10.55;2.10;;;15.50;99.90;;;;;;5031508;28;20173;-74
2023/07/11 04:54:55;;;;;;;10.68;2.63;;;15.70;99.90;;;;;;5031372;28;20213;-75
2023/07/11 04:57:21;;;;;;;8.43;2.22;;;15.70;99.90;;;;;;5031247;28;20628;-74
2023/07/11 04:59:47;;;;;;;11.00;2.00;;;15.70;99.90;;;;;;5031383;28;20170;-72
2023/07/11 05:02:13;;;;;;;12.32;2.00;;;15.80;99.90;;;;;;5031190;28;20220;-72
2023/07/11 05:04:39;;;;;;;13.68;2.25;;;15.80;99.90;;;;;;5031009;28;20676;-73
2023/07/11 05:07:05;;;;;;;8.38;2.33;;;15.70;99.90;;;;;;5031020;28;20178;-73
2023/07/11 05:09:31;;;;;;;12.02;2.20;;;15.70;99.90;;;;;;5031134;28;20585;-73
2023/07/11 05:11:57;;;;;;;10.73;2.00;;;15.80;99.90;;;;;;5031331;28;20231;-73
2023/07/11 05:14:25;;;;;;;11.43;1.73;;;15.80;99.90;;;;;;5029783;28;20233;-74
2023/07/11 05:16:51;;;;;;;10.88;2.47;;;15.60;99.90;;;;;;5030336;28;20174;-82
2023/07/11 05:19:16;;;;;;;8.63;2.17;;;15.80;99.90;;;;;;5031978;28;20200;-78
2023/07/11 05:21:42;;;;;;;9.02;2.45;;;15.80;99.90;;;;;;5031618;28;20267;-79
2023/07/11 05:24:08;;;;;;;10.52;2.15;;;15.80;99.90;;;;;;5032959;28;20197;-79
2023/07/11 05:26:34;;;;;;;8.25;2.42;;;15.90;99.90;;;;;;5034773;28;20693;-76
2023/07/11 05:29:00;;;;;;;15.23;2.45;;;15.90;99.90;;;;;;5035489;28;20206;-76
2023/07/11 05:31:25;;;;;;;15.85;2.40;;;16.00;99.90;;;;;;5035304;28;20188;-76
2023/07/11 05:33:53;;;;;;;11.40;2.30;;;15.90;99.90;;;;;;5035219;28;20232;-76
2023/07/11 05:38:54;;;;;;;11.70;2.60;;;15.90;99.90;;;;;;5034948;28;20256;-77
2023/07/11 05:41:19;;;;;;;16.40;2.60;;;16.00;99.90;;;;;;5034714;28;20190;-76
2023/07/11 05:43:45;;;;;;;9.30;1.90;;;16.00;99.90;;;;;;5034897;28;20223;-76
2023/07/11 05:46:11;;;;;;;14.05;2.70;;;16.00;99.90;;;;;;5034278;28;20664;-75
2023/07/11 05:48:37;;;;;;;10.20;2.00;;;16.00;99.90;;;;;;5033495;28;20657;-74
2023/07/11 05:51:05;;;;;;;10.25;2.25;;;16.00;99.90;;;;;;5034240;28;20184;-74
2023/07/11 05:53:30;;;;;;;15.40;2.55;;;16.20;99.90;;;;;;5034100;28;20664;-75
2023/07/11 05:55:57;;;;;;;10.45;2.40;;;16.20;99.90;;;;;;5034126;28;20189;-74
2023/07/11 05:58:24;;;;;;;11.77;1.92;;;16.30;99.90;;;;;;5034490;28;20220;-74
2023/07/11 06:00:53;;;;;;;10.38;2.33;;;16.30;99.90;;;;;;5033994;28;20181;-74
2023/07/11 06:03:23;;;;;;;14.23;2.58;;;16.30;99.90;;;;;;5033738;28;20204;-73
2023/07/11 06:05:49;;;;;;;10.48;2.50;;;16.30;99.90;;;;;;5034226;28;20196;-74
2023/07/11 06:08:15;;;;;;;10.48;2.70;;;16.30;99.90;;;;;;5034190;28;20216;-74
2023/07/11 06:10:42;;;;;;;12.57;2.58;;;16.30;99.90;;;;;;5034203;28;20248;-75
2023/07/11 06:13:09;;;;;;;10.48;2.58;;;16.40;99.90;;;;;;5034203;28;20651;-74
2023/07/11 06:15:35;;;;;;;10.23;1.98;;;16.50;99.90;;;;;;5034109;28;20224;-75
2023/07/11 06:18:01;;;;;;;13.00;2.17;;;16.60;99.90;;;;;;5034146;28;20174;-74
2023/07/11 06:20:27;;;;;;;9.68;2.53;;;16.50;99.90;;;;;;5040122;28;20632;-80
2023/07/11 06:22:54;;;;;;;13.13;2.72;;;16.60;99.90;;;;;;5038564;28;20170;-82
2023/07/11 06:25:20;;;;;;;11.88;2.72;;;16.60;99.90;;;;;;5035976;28;20540;-82
2023/07/11 06:27:46;;;;;;;12.13;2.28;;;16.60;99.90;;;;;;5034959;28;20262;-81
2023/07/11 06:30:12;;;;;;;8.82;2.80;;;16.60;99.90;;;;;;5034311;28;20621;-82
2023/07/11 06:32:38;;;;;;;9.52;2.65;;;16.60;99.90;;;;;;5034062;28;20673;-74
2023/07/11 06:35:04;;;;;;;14.93;3.10;;;16.60;99.90;;;;;;5034233;28;20214;-76
2023/07/11 06:37:30;;;;;;;15.35;2.80;;;16.70;99.90;;;;;;5033772;28;20177;-75
2023/07/11 06:39:55;;;;;;;12.90;3.22;;;16.80;99.90;;;;;;5033801;28;20628;-75
2023/07/11 06:42:21;;;;;;;13.25;2.97;;;16.70;99.90;;;;;;5033760;28;20178;-75
2023/07/11 06:44:46;;;;;;;9.55;2.50;;;16.80;99.90;;;;;;5033626;28;20181;-77
2023/07/11 06:47:12;;;;;;;13.30;2.70;;;16.90;99.90;;;;;;5033585;28;20719;-78
2023/07/11 06:49:38;;;;;;;14.93;2.85;;;16.80;99.90;;;;;;5065628;28;20196;-77
2023/07/11 06:52:04;;;;;;;13.85;2.72;;;16.90;99.90;;;;;;5033684;28;20629;-78
2023/07/11 06:54:29;;;;;;;20.05;3.63;;;16.90;99.90;;;;;;5033621;28;20248;-77
2023/07/11 06:56:58;;;;;;;12.80;2.97;;;16.90;99.90;;;;;;5033525;28;20181;-78
2023/07/11 06:59:24;;;;;;;18.40;2.90;;;17.00;99.90;;;;;;5033525;28;20184;-77
2023/07/11 07:01:49;;;;;;;12.75;2.65;;;17.00;99.90;;;;;;5033271;28;20186;-77
2023/07/11 07:04:15;;;;;;;14.50;2.70;;;17.10;99.90;;;;;;5033379;28;20200;-77
2023/07/11 07:06:42;;;;;;;14.95;2.88;;;17.00;99.90;;;;;;5033314;28;20166;-66
2023/07/11 07:09:08;;;;;;;16.67;2.90;;;17.10;99.90;;;;;;5033170;28;20636;-73
2023/07/11 07:11:35;;;;;;;11.95;2.75;;;17.20;99.90;;;;;;5033146;28;20190;-73
2023/07/11 07:14:01;;;;;;;14.13;2.90;;;17.20;99.90;;;;;;5032298;28;20213;-73
2023/07/11 07:16:28;;;;;;;10.93;2.90;;;17.30;99.90;;;;;;5032474;28;20704;-74
2023/07/11 07:18:54;;;;;;;21.75;3.03;;;17.30;99.90;;;;;;5032505;28;20649;-76
2023/07/11 07:21:20;;;;;;;11.25;3.00;;;17.50;99.90;;;;;;5032768;28;20641;-75
2023/07/11 07:23:46;;;;;;;17.98;3.28;;;17.40;99.90;;;;;;5032948;28;20174;-77
2023/07/11 07:26:12;;;;;;;17.73;2.55;;;17.60;99.90;;;;;;5033618;28;20173;-77
2023/07/11 07:28:37;;;;;;;17.20;3.45;;;17.40;99.90;;;;;;5031965;28;20188;-85
2023/07/11 07:31:05;;;;;;;17.05;3.05;;;17.50;99.90;;;;;;5032133;28;20185;-80
2023/07/11 07:33:31;;;;;;;11.35;2.60;;;17.40;99.90;;;;;;5032542;28;20182;-81
2023/07/11 07:36:00;;;;;;;18.98;2.95;;;17.40;99.90;;;;;;5032200;28;20663;-84
2023/07/11 07:38:28;;;;;;;11.10;2.50;;;17.40;99.90;;;;;;5031337;28;20182;-82
2023/07/11 07:40:55;;;;;;;12.23;2.78;;;17.50;99.90;;;;;;5021070;28;20223;-82
2023/07/11 07:43:21;;;;;;;17.13;2.85;;;17.50;99.90;;;;;;5033112;28;20166;-79
2023/07/11 07:45:48;;;;;;;17.65;3.28;;;17.50;99.90;;;;;;5033202;28;20232;-83
2023/07/11 07:48:14;;;;;;;18.77;3.13;;;17.50;99.90;;;;;;5030672;28;20166;-86
2023/07/11 07:50:39;;;;;;;12.90;2.65;;;17.50;99.90;;;;;;5032414;28;20174;-80
2023/07/11 07:53:05;;;;;;;11.10;2.30;;;17.80;99.90;;;;;;5032197;28;20223;-70
2023/07/11 07:55:34;;;;;;;17.17;2.30;;;17.60;99.90;;;;;;5032150;28;20213;-70
2023/07/11 07:58:00;;;;;;;10.55;2.70;;;17.50;99.90;;;;;;5019799;28;20174;-69
2023/07/11 08:00:26;;;;;;;20.85;3.38;;;17.50;99.90;;;;;;5027521;28;20681;-68
2023/07/11 08:02:51;;;;;;;12.48;2.65;;;17.60;99.90;;;;;;5020420;28;20172;-69
2023/07/11 08:05:18;;;;;;;15.93;2.80;;;17.60;99.90;;;;;;5031766;28;20193;-70
2023/07/11 08:07:44;;;;;;;12.90;2.95;;;17.60;99.90;;;;;;5032123;28;20261;-69
2023/07/11 08:10:09;;;;;;;15.95;2.92;;;17.70;99.90;;;;;;5031927;28;20223;-71
2023/07/11 08:12:35;;;;;;;12.98;3.20;;;17.70;99.90;;;;;;5031762;28;20178;-79
2023/07/11 08:15:05;;;;;;;19.45;2.92;;;17.70;99.90;;;;;;5031106;28;20221;-72
2023/07/11 08:17:31;;;;;;;13.88;3.22;;;17.70;99.90;;;;;;5031578;28;20243;-69
2023/07/11 08:19:57;;;;;;;13.70;2.47;;;;;;;;;;5031714;28;20177;-70
2023/07/11 08:22:23;;;;;;;12.18;2.33;;;18.00;99.90;;;;;;5031661;28;20170;-70
2023/07/11 08:24:49;;;;;;;17.92;3.25;;;;;;;;;;5030300;28;20170;-69
2023/07/11 08:27:15;;;;;;;13.25;2.90;;;;;;;;;;5031231;28;20182;-69
2023/07/11 08:29:45;;;;;;;10.43;2.45;;;;;;;;;;5030990;28;20213;-70
2023/07/11 08:32:14;;;;;;;15.73;2.95;;;18.00;99.90;;;;;;5030153;28;20209;-69
2023/07/11 08:34:40;;;;;;;14.70;2.45;;;;;;;;;;5031047;28;20239;-68
2023/07/11 08:37:06;;;;;;;19.13;3.45;;;18.10;99.90;;;;;;5030979;28;20663;-70
2023/07/11 08:39:31;;;;;;;16.83;3.22;;;18.20;99.90;;;;;;5031336;28;20269;-69
2023/07/11 08:42:03;;;;;;;19.08;3.08;;;18.00;99.90;;;;;;4746646;22;22467;-69
2023/07/11 08:44:36;;;;;;;12.48;2.70;;;18.30;99.90;;;;;;4984409;23;20694;-70
2023/07/11 08:47:09;;;;;;;22.85;3.22;;;18.30;99.90;;;;;;4966338;28;20176;-72
2023/07/11 08:49:47;;;;;;;15.40;3.00;;;18.40;99.90;;;;;;4972447;28;20176;-68
2023/07/11 08:52:14;;;;;;;12.18;3.03;;;18.60;99.90;;;;;;4971052;28;20179;-68
2023/07/11 08:54:52;;;;;;;19.23;2.95;;;19.00;99.90;;;;;;4971817;28;20224;-69
2023/07/11 08:57:20;;;;;;;16.75;3.20;;;18.70;99.90;;;;;;4972288;28;20168;-68
2023/07/11 09:00:17;;;;;;;19.80;3.05;;;18.60;99.90;;;;;;4972174;28;20682;-69
2023/07/11 09:03:02;;;;;;;19.63;3.03;;;18.40;99.90;;;;;;4971573;28;20658;-69
2023/07/11 09:05:52;;;;;;;18.60;3.17;;;18.60;99.90;;;;;;4972261;28;20171;-68
2023/07/11 09:08:20;;;;;;;21.02;3.42;;;18.80;99.90;;;;;;4972429;28;20295;-68
2023/07/11 09:11:16;;;;;;;13.55;3.03;;;18.60;99.90;;;;;;4972273;28;20184;-67
2023/07/11 09:13:50;;;;;;;13.25;2.60;;;18.80;99.90;;;;;;4972170;28;20611;-68
2023/07/11 09:16:16;;;;;;;14.13;2.72;;;;;;;;;;4972017;28;20251;-69
2023/07/11 09:19:12;;;;;;;12.50;2.72;;;20.70;99.90;;;;;;4972097;28;20242;-69
2023/07/11 09:21:59;;;;;;;12.63;2.58;;;19.10;99.90;;;;;;4971776;28;20207;-69
2023/07/11 09:25:07;;;;;;;13.00;2.90;;;19.20;99.90;;;;;;4971995;28;20215;-68
2023/07/11 09:27:34;;;;;;;13.25;2.88;;;19.20;99.90;;;;;;4970707;28;20195;-68
2023/07/11 09:30:05;;;;;;;12.98;2.70;;;19.20;99.90;;;;;;4971785;28;20262;-68
2023/07/11 09:32:34;;;;;;;14.20;2.97;;;19.30;99.90;;;;;;4972086;28;20174;-68
2023/07/11 09:35:31;;;;;;;15.52;2.90;;;19.30;99.90;;;;;;4972075;28;20211;-69
2023/07/11 09:38:10;;;;;;;15.65;2.95;;;19.40;99.90;;;;;;4972045;28;20222;-69
2023/07/11 09:40:42;;;;;;;18.20;2.90;;;19.30;99.90;;;;;;4971927;28;20184;-69
2023/07/11 09:43:08;;;;;;;13.20;2.85;;;;;;;;;;4971959;28;20297;-69
2023/07/11 09:45:37;;;;;;;11.20;2.53;;;19.30;99.90;;;;;;4971928;28;20223;-69
2023/07/11 09:48:14;;;;;;;13.20;2.97;;;19.50;99.90;;;;;;4972067;28;20168;-68
2023/07/11 09:50:44;;;;;;;16.48;2.55;;;19.60;99.90;;;;;;4971475;28;20258;-68
2023/07/11 09:53:14;;;;;;;11.15;2.47;;;19.70;99.90;;;;;;4971748;28;20180;-68
2023/07/11 09:55:40;;;;;;;16.73;3.47;;;19.70;99.90;;;;;;4971613;28;20239;-68
2023/07/11 09:58:13;;;;;;;10.73;2.70;;;20.40;99.90;;;;;;4971690;28;20172;-68
2023/07/11 10:00:50;;;;;;;14.07;2.55;;;19.40;99.90;;;;;;4971621;28;20191;-67
2023/07/11 10:03:25;;;;;;;12.43;2.50;;;19.10;99.90;;;;;;4971701;28;20202;-68
2023/07/11 10:05:52;;;;;;;11.52;2.70;;;19.20;99.90;;;;;;4971670;28;20182;-68
2023/07/11 10:08:23;;;;;;;18.15;2.90;;;19.20;99.90;;;;;;4971333;28;20175;-68
2023/07/11 10:10:51;;;;;;;13.52;3.38;;;19.30;99.90;;;;;;4970719;28;20176;-68
2023/07/11 10:13:18;;;;;;;13.88;2.65;;;19.40;99.90;;;;;;4975140;28;20171;-68
2023/07/11 10:15:48;;;;;;;13.95;2.55;;;19.30;99.90;;;;;;4975132;28;20199;-68
2023/07/11 10:18:19;;;;;;;10.98;2.67;;;19.10;99.90;;;;;;4975341;28;20180;-67
2023/07/11 10:20:51;;;;;;;13.48;2.63;;;19.10;99.90;;;;;;4975250;28;20172;-68
2023/07/11 10:23:24;;;;;;;17.15;3.05;;;19.30;99.90;;;;;;4975115;28;20183;-68
2023/07/11 10:26:26;;;;;;;12.07;2.63;;;19.20;99.90;;;;;;4975183;28;20183;-67
2023/07/11 10:29:00;;;;;;;16.70;3.08;;;19.20;99.90;;;;;;4972568;28;20183;-67
2023/07/11 10:31:37;;;;;;;15.85;3.75;;;19.20;99.90;;;;;;4974565;28;20180;-68
2023/07/11 10:34:13;;;;;;;14.00;2.88;;;19.20;99.90;;;;;;4974820;28;20736;-68
2023/07/11 10:36:45;;;;;;;15.43;3.65;;;19.60;99.90;;;;;;4974829;28;20228;-68
2023/07/11 10:39:40;;;;;;;13.20;2.75;;;19.30;99.90;;;;;;4975087;28;20176;-67
2023/07/11 10:42:22;;;;;;;10.32;2.47;;;19.20;99.90;;;;;;4974560;28;20188;-68
2023/07/11 10:44:52;;;;;;;13.82;3.22;;;19.30;99.90;;;;;;4974238;28;20586;-69
2023/07/11 10:47:27;;;;;;;13.52;2.83;;;19.20;99.90;;;;;;4972875;28;20184;-68
2023/07/11 10:49:56;;;;;;;17.40;3.30;;;19.30;99.90;;;;;;4961514;28;20398;-67
2023/07/11 10:52:26;;;;;;;20.27;3.20;;;19.50;99.90;;;;;;4974640;28;20590;-67
2023/07/11 10:55:05;;;;;;;11.32;3.17;;;19.20;99.90;;;;;;4965099;28;20204;-67
2023/07/11 10:57:50;;;;;;;13.00;2.58;;;19.30;99.90;;;;;;4955223;28;20627;-68
2023/07/11 11:00:37;;;;;;;25.33;3.63;;;19.10;99.90;;;;;;4955251;28;20318;-68
2023/07/11 11:03:23;;;;;;;22.05;3.60;;;19.10;99.90;;;;;;4955051;28;20179;-68
2023/07/11 11:05:56;;;;;;;15.85;3.17;;;19.20;99.90;;;;;;4954852;28;20196;-68
2023/07/11 11:08:31;;;;;;;10.93;2.63;;;19.30;99.90;;;;;;4954805;28;20231;-68
2023/07/11 11:11:06;;;;;;;17.33;3.47;;;19.30;99.90;;;;;;4954741;28;20172;-68
2023/07/11 11:13:43;;;;;;;12.35;3.00;;;19.60;99.90;;;;;;4955443;28;20180;-69
2023/07/11 11:16:14;;;;;;;16.83;3.28;;;19.40;99.90;;;;;;4957579;28;20181;-68
2023/07/11 11:18:46;;;;;;;19.90;3.78;;;19.50;99.90;;;;;;4955014;28;20196;-68
2023/07/11 11:21:27;;;;;;;17.60;3.58;;;19.60;99.90;;;;;;4954740;28;20185;-67
2023/07/11 11:23:55;;;;;;;16.00;2.90;;;19.70;99.90;;;;;;4953840;28;20196;-67
2023/07/11 11:26:49;;;;;;;18.27;3.47;;;19.70;99.90;;;;;;4954665;28;20168;-67
2023/07/11 11:29:31;;;;;;;20.70;4.07;;;19.90;99.90;;;;;;4954757;28;20191;-67
2023/07/11 11:32:09;;;;;;;14.27;3.83;;;19.90;99.90;;;;;;4953360;29;20247;-67
2023/07/11 11:35:00;;;;;;;14.35;3.67;;;20.00;99.90;;;;;;4954421;28;20211;-67
2023/07/11 11:37:53;;;;;;;13.90;3.60;;;19.90;99.90;;;;;;4954358;28;20184;-68
2023/07/11 11:40:21;;;;;;;11.27;2.88;;;19.80;99.90;;;;;;4954197;28;20252;-69
2023/07/11 11:42:53;;;;;;;8.45;2.55;;;19.90;99.90;;;;;;4954377;28;20602;-69
2023/07/11 11:45:23;;;;;;;12.93;3.30;;;20.10;99.90;;;;;;4954121;28;20236;-69
2023/07/11 11:47:53;;;;;;;16.65;3.58;;;20.10;99.90;;;;;;4954469;28;20200;-69
2023/07/11 11:50:21;;;;;;;12.77;2.88;;;20.30;99.90;;;;;;4954294;28;20184;-68
2023/07/11 11:52:57;;;;;;;12.82;3.67;;;20.10;99.90;;;;;;4954310;28;20216;-69
2023/07/11 11:56:03;;;;;;;14.57;2.72;;;19.90;99.90;;;;;;4953950;28;20208;-68
2023/07/11 11:58:31;;;;;;;12.55;2.90;;;19.70;99.90;;;;;;4953814;28;20188;-71
2023/07/11 12:00:58;;;;;;;14.38;3.58;;;19.80;99.90;;;;;;4953818;28;20181;-68
2023/07/11 12:03:28;;;;;;;17.35;3.05;;;19.50;99.90;;;;;;4954109;28;20227;-68
2023/07/11 12:05:56;;;;;;;12.23;3.08;;;19.60;99.90;;;;;;4953859;28;20679;-69
2023/07/11 12:08:31;;;;;;;14.70;3.20;;;19.90;99.90;;;;;;4953678;28;20681;-70
2023/07/11 12:11:09;;;;;;;14.23;3.13;;;20.40;99.90;;;;;;4956986;28;20172;-69
2023/07/11 12:13:44;;;;;;;19.40;2.65;;;20.10;99.90;;;;;;4970286;28;20178;-68
2023/07/11 12:16:24;;;;;;;12.75;2.70;;;20.30;99.90;;;;;;4972739;28;20211;-68
2023/07/11 12:18:51;;;;;;;12.27;2.80;;;20.20;99.90;;;;;;4972994;28;20179;-70
2023/07/11 12:21:24;;;;;;;13.65;3.05;;;20.20;99.90;;;;;;4973045;28;20418;-70
2023/07/11 12:23:52;;;;;;;14.38;2.80;;;20.20;99.90;;;;;;4971675;28;20264;-68
2023/07/11 12:26:23;;;;;;;13.15;2.95;;;20.20;99.90;;;;;;4972805;28;20284;-69
2023/07/11 12:28:50;;;;;;;13.32;2.70;;;20.40;99.90;;;;;;4972723;28;20207;-70
2023/07/11 12:31:22;;;;;;;14.05;2.72;;;20.00;99.90;;;;;;4972729;28;20180;-68
2023/07/11 12:34:10;;;;;;;13.48;2.40;;;20.20;99.90;;;;;;4972432;28;20258;-68
2023/07/11 12:36:47;;;;;;;10.48;2.30;;;20.60;99.90;;;;;;4972429;28;20184;-68
2023/07/11 12:39:45;;;;;;;20.63;2.83;;;20.60;99.90;;;;;;4972678;28;20175;-69
2023/07/11 12:42:39;;;;;;;13.52;2.53;;;21.30;99.90;;;;;;4972577;28;20255;-68
2023/07/11 12:45:20;;;;;;;15.07;3.10;;;21.10;99.90;;;;;;4973313;28;20253;-68
2023/07/11 12:47:48;;;;;;;13.18;2.85;;;21.10;99.90;;;;;;4971297;28;20176;-69
2023/07/11 12:50:28;;;;;;;11.32;2.42;;;21.00;99.90;;;;;;4971459;28;20646;-69
2023/07/11 12:52:59;;;;;;;14.60;3.28;;;22.10;99.90;;;;;;4972758;28;20178;-69
2023/07/11 12:55:25;;;;;;;12.45;2.75;;;21.10;99.90;;;;;;4972703;28;20223;-69
2023/07/11 12:57:51;;;;;;;16.58;3.08;;;20.90;99.90;;;;;;4972436;28;20545;-68
2023/07/11 13:00:20;;;;;;;16.13;3.63;;;20.90;99.90;;;;;;4972550;28;20176;-68